createdAt,value
2022-11-27T00:02:22.001Z,79.27
2022-11-27T00:04:48.472Z,79.40
2022-11-27T00:07:14.972Z,78.99
2022-11-27T00:09:41.843Z,79.23
2022-11-27T00:12:08.685Z,79.08
2022-11-27T00:14:35.159Z,79.44
2022-11-27T00:17:01.838Z,79.04
2022-11-27T00:19:29.230Z,79.04
2022-11-27T00:21:55.687Z,78.91
2022-11-27T00:24:23.615Z,79.24
2022-11-27T00:26:50.071Z,79.46
2022-11-27T00:29:16.609Z,79.18
2022-11-27T00:31:43.203Z,79.30
2022-11-27T00:34:10.932Z,78.81
2022-11-27T00:36:38.524Z,79.26
2022-11-27T00:39:05.569Z,79.27
2022-11-27T00:41:32.321Z,79.32
2022-11-27T00:43:59.100Z,78.89
2022-11-27T00:46:28.983Z,78.83
2022-11-27T00:49:00.820Z,79.10
2022-11-27T00:51:27.988Z,78.93
2022-11-27T00:53:55.108Z,78.73
2022-11-27T00:56:24.378Z,78.70
2022-11-27T00:58:51.699Z,79.32
2022-11-27T01:01:24.163Z,79.20
2022-11-27T01:03:51.484Z,79.07
2022-11-27T01:06:19.178Z,79.21
2022-11-27T01:08:45.901Z,79.07
2022-11-27T01:11:18.646Z,78.96
2022-11-27T01:13:45.710Z,79.18
2022-11-27T01:16:15.642Z,79.19
2022-11-27T01:18:43.986Z,78.98
2022-11-27T01:21:11.655Z,79.09
2022-11-27T01:23:38.227Z,78.84
2022-11-27T01:26:07.260Z,78.87
2022-11-27T01:28:34.530Z,79.28
2022-11-27T01:31:07.013Z,78.65
2022-11-27T01:33:33.995Z,78.96
2022-11-27T01:36:02.309Z,78.69
2022-11-27T01:38:31.064Z,78.67
2022-11-27T01:40:58.867Z,78.92
2022-11-27T01:43:46.621Z,78.90
2022-11-27T01:46:28.769Z,78.62
2022-11-27T01:49:03.143Z,78.50
2022-11-27T01:51:31.065Z,78.66
2022-11-27T01:53:57.804Z,78.43
2022-11-27T01:56:26.059Z,78.66
2022-11-27T01:58:52.918Z,78.29
2022-11-27T02:01:19.488Z,78.78
2022-11-27T02:03:46.023Z,78.71
2022-11-27T02:06:14.042Z,78.98
2022-11-27T02:08:41.568Z,78.51
2022-11-27T02:11:49.131Z,78.61
2022-11-27T02:14:24.023Z,78.58
2022-11-27T02:16:59.907Z,78.41
2022-11-27T02:19:56.557Z,78.46
2022-11-27T02:22:32.046Z,78.48
2022-11-27T02:25:25.316Z,78.57
2022-11-27T02:28:05.054Z,78.61
2022-11-27T02:30:36.650Z,78.41
2022-11-27T02:33:09.977Z,78.48
2022-11-27T02:35:40.839Z,78.45
2022-11-27T02:38:15.188Z,78.73
2022-11-27T02:40:50.837Z,78.40
2022-11-27T02:43:38.696Z,78.87
2022-11-27T02:46:08.342Z,78.87
2022-11-27T02:48:40.340Z,78.67
2022-11-27T02:51:08.267Z,78.32
2022-11-27T02:53:45.530Z,78.76
2022-11-27T02:56:17.006Z,78.34
2022-11-27T02:58:46.350Z,78.94
2022-11-27T03:01:15.839Z,78.72
2022-11-27T03:03:48.084Z,78.57
2022-11-27T03:06:20.682Z,78.44
2022-11-27T03:08:58.760Z,78.33
2022-11-27T03:11:30.767Z,78.37
2022-11-27T03:14:02.207Z,78.42
2022-11-27T03:16:43.406Z,78.34
2022-11-27T03:19:19.455Z,78.34
2022-11-27T03:21:48.157Z,78.42
2022-11-27T03:24:15.030Z,78.15
2022-11-27T03:26:41.939Z,77.75
2022-11-27T03:29:17.942Z,77.71
2022-11-27T03:31:44.896Z,77.80
2022-11-27T03:34:12.202Z,78.23
2022-11-27T03:36:38.680Z,77.94
2022-11-27T03:39:05.489Z,77.86
2022-11-27T03:41:44.032Z,77.77
2022-11-27T03:44:24.659Z,77.80
2022-11-27T03:47:07.781Z,77.71
2022-11-27T03:49:34.221Z,77.79
2022-11-27T03:52:20.776Z,77.55
2022-11-27T03:55:01.061Z,77.75
2022-11-27T03:57:38.143Z,77.46
2022-11-27T04:00:08.290Z,77.74
2022-11-27T04:02:45.195Z,77.47
2022-11-27T04:05:12.659Z,77.49
2022-11-27T04:07:39.827Z,77.45
2022-11-27T04:10:07.238Z,77.16
2022-11-27T04:12:33.797Z,76.96
2022-11-27T04:15:01.027Z,77.52
2022-11-27T04:17:27.647Z,77.38
2022-11-27T04:19:54.108Z,77.35
2022-11-27T04:22:20.665Z,77.19
2022-11-27T04:24:47.181Z,77.47
2022-11-27T04:27:13.688Z,77.54
2022-11-27T04:29:40.495Z,77.11
2022-11-27T04:32:06.916Z,77.28
2022-11-27T04:34:33.371Z,76.94
2022-11-27T04:37:00.163Z,77.01
2022-11-27T04:39:27.033Z,77.19
2022-11-27T04:41:53.561Z,76.95
2022-11-27T04:44:22.670Z,77.00
2022-11-27T04:46:50.137Z,76.77
2022-11-27T04:49:16.792Z,76.72
2022-11-27T04:51:43.273Z,76.58
2022-11-27T04:54:09.735Z,76.98
2022-11-27T04:56:37.140Z,76.99
2022-11-27T04:59:05.001Z,76.55
2022-11-27T05:01:31.686Z,76.63
2022-11-27T05:03:58.230Z,76.63
2022-11-27T05:06:24.730Z,76.79
2022-11-27T05:08:51.201Z,76.70
2022-11-27T05:11:18.196Z,76.58
2022-11-27T05:13:45.158Z,76.56
2022-11-27T05:16:11.799Z,76.48
2022-11-27T05:18:38.682Z,76.42
2022-11-27T05:21:07.956Z,76.58
2022-11-27T05:23:35.244Z,76.71
2022-11-27T05:26:03.871Z,76.11
2022-11-27T05:28:30.397Z,76.28
2022-11-27T05:30:56.890Z,76.57
2022-11-27T05:33:23.523Z,76.22
2022-11-27T05:35:49.952Z,76.18
2022-11-27T05:38:16.401Z,76.07
2022-11-27T05:40:42.893Z,76.24
2022-11-27T05:43:09.480Z,75.98
2022-11-27T05:45:37.457Z,76.14
2022-11-27T05:48:04.065Z,76.00
2022-11-27T05:50:30.526Z,76.01
2022-11-27T05:52:56.958Z,75.89
2022-11-27T05:55:23.862Z,75.82
2022-11-27T05:57:50.318Z,76.11
2022-11-27T06:00:17.054Z,75.90
2022-11-27T06:02:44.022Z,75.91
2022-11-27T06:05:10.563Z,75.68
2022-11-27T06:07:37.032Z,75.84
2022-11-27T06:10:04.040Z,75.67
2022-11-27T06:12:32.074Z,75.69
2022-11-27T06:14:58.574Z,75.51
2022-11-27T06:17:25.045Z,75.49
2022-11-27T06:19:51.697Z,75.47
2022-11-27T06:22:18.159Z,75.62
2022-11-27T06:24:44.602Z,75.60
2022-11-27T06:27:11.263Z,75.96
2022-11-27T06:29:37.918Z,75.68
2022-11-27T06:32:05.070Z,75.50
2022-11-27T06:34:31.683Z,75.58
2022-11-27T06:36:58.109Z,75.67
2022-11-27T06:39:24.573Z,75.40
2022-11-27T06:41:51.026Z,75.54
2022-11-27T06:44:17.529Z,75.69
2022-11-27T06:46:44.141Z,75.71
2022-11-27T06:49:10.625Z,75.45
2022-11-27T06:51:37.129Z,75.93
2022-11-27T06:54:03.749Z,75.70
2022-11-27T06:56:32.136Z,75.30
2022-11-27T06:59:00.946Z,75.42
2022-11-27T07:01:30.291Z,75.17
2022-11-27T07:03:57.695Z,75.17
2022-11-27T07:06:26.601Z,75.17
2022-11-27T07:08:53.658Z,75.74
2022-11-27T07:11:23.068Z,75.38
2022-11-27T07:13:50.968Z,75.59
2022-11-27T07:16:18.848Z,75.24
2022-11-27T07:18:50.996Z,75.63
2022-11-27T07:21:17.799Z,75.12
2022-11-27T07:23:44.681Z,75.32
2022-11-27T07:26:16.721Z,75.29
2022-11-27T07:28:44.045Z,75.46
2022-11-27T07:31:12.370Z,75.40
2022-11-27T07:33:39.069Z,75.63
2022-11-27T07:36:08.842Z,75.41
2022-11-27T07:38:35.357Z,75.16
2022-11-27T07:41:03.507Z,75.47
2022-11-27T07:43:31.710Z,75.05
2022-11-27T07:45:58.870Z,75.36
2022-11-27T07:48:25.684Z,75.40
2022-11-27T07:50:52.119Z,75.03
2022-11-27T07:53:18.619Z,75.49
2022-11-27T07:55:45.058Z,75.17
2022-11-27T07:58:11.574Z,74.83
2022-11-27T08:00:38.296Z,75.06
2022-11-27T08:03:04.885Z,75.51
2022-11-27T08:05:35.576Z,74.71
2022-11-27T08:08:04.468Z,74.68
2022-11-27T08:10:34.637Z,74.50
2022-11-27T08:13:01.099Z,74.67
2022-11-27T08:15:27.573Z,74.06
2022-11-27T08:17:54.316Z,73.64
2022-11-27T08:20:21.008Z,73.92
2022-11-27T08:22:47.538Z,74.09
2022-11-27T08:25:14.422Z,73.89
2022-11-27T08:27:41.085Z,73.58
2022-11-27T08:30:08.189Z,73.40
2022-11-27T08:32:34.757Z,74.02
2022-11-27T08:35:02.631Z,73.38
2022-11-27T08:37:29.248Z,73.18
2022-11-27T08:39:55.667Z,73.07
2022-11-27T08:42:23.228Z,73.36
2022-11-27T08:44:49.836Z,73.03
2022-11-27T08:47:16.968Z,72.85
2022-11-27T08:49:46.218Z,72.65
2022-11-27T08:52:13.464Z,72.79
2022-11-27T08:54:40.204Z,72.93
2022-11-27T08:57:06.805Z,72.74
2022-11-27T08:59:33.303Z,72.88
2022-11-27T09:01:59.740Z,72.26
2022-11-27T09:04:26.215Z,72.59
2022-11-27T09:06:57.956Z,72.68
2022-11-27T09:09:25.014Z,72.40
2022-11-27T09:11:54.239Z,72.53
2022-11-27T09:14:21.137Z,72.25
2022-11-27T09:16:47.682Z,71.59
2022-11-27T09:19:14.218Z,71.70
2022-11-27T09:21:41.073Z,71.48
2022-11-27T09:24:08.956Z,71.73
2022-11-27T09:26:35.847Z,71.54
2022-11-27T09:29:02.605Z,71.50
2022-11-27T09:31:29.115Z,72.40
2022-11-27T09:33:55.621Z,71.54
2022-11-27T09:36:24.463Z,71.54
2022-11-27T09:38:51.409Z,72.34
2022-11-27T09:41:38.833Z,71.96
2022-11-27T09:44:31.876Z,72.03
2022-11-27T09:47:10.203Z,72.20
2022-11-27T09:49:43.683Z,70.74
2022-11-27T09:52:10.110Z,70.82
2022-11-27T09:54:52.272Z,70.79
2022-11-27T09:57:26.757Z,70.54
2022-11-27T09:59:54.011Z,71.35
2022-11-27T10:02:29.855Z,70.20
2022-11-27T10:05:13.453Z,69.68
2022-11-27T10:08:09.312Z,69.53
2022-11-27T10:10:57.072Z,69.75
2022-11-27T10:13:29.825Z,69.34
2022-11-27T10:16:23.995Z,69.54
2022-11-27T10:18:58.168Z,69.59
2022-11-27T10:21:41.227Z,69.92
2022-11-27T10:24:36.820Z,70.11
2022-11-27T10:27:20.505Z,70.52
2022-11-27T10:29:52.746Z,70.93
2022-11-27T10:32:53.390Z,70.90
2022-11-27T10:35:18.476Z,70.95
2022-11-27T10:37:54.886Z,70.76
2022-11-27T10:40:28.246Z,71.86
2022-11-27T10:42:59.633Z,70.95
2022-11-27T10:45:44.521Z,71.23
2022-11-27T10:48:12.447Z,71.54
2022-11-27T10:50:39.482Z,71.89
2022-11-27T10:53:10.657Z,71.79
2022-11-27T10:56:05.088Z,71.68
2022-11-27T10:58:50.397Z,72.02
2022-11-27T11:01:20.344Z,72.01
2022-11-27T11:03:47.292Z,72.43
2022-11-27T11:06:22.395Z,72.54
2022-11-27T11:09:02.963Z,72.17
2022-11-27T11:11:29.607Z,72.23
2022-11-27T11:13:56.107Z,72.38
2022-11-27T11:16:29.392Z,72.62
2022-11-27T11:18:58.825Z,72.66
2022-11-27T11:21:28.011Z,72.30
2022-11-27T11:24:01.603Z,72.03
2022-11-27T11:26:30.010Z,72.44
2022-11-27T11:28:59.483Z,71.94
2022-11-27T11:31:38.558Z,71.67
2022-11-27T11:34:17.825Z,71.34
2022-11-27T11:37:02.761Z,70.97
2022-11-27T11:39:32.488Z,71.28
2022-11-27T11:41:59.642Z,71.12
2022-11-27T11:44:37.435Z,71.64
2022-11-27T11:47:03.891Z,70.93
2022-11-27T11:49:33.303Z,70.79
2022-11-27T11:52:09.057Z,71.03
2022-11-27T11:54:42.848Z,70.19
2022-11-27T11:57:41.901Z,70.78
2022-11-27T12:01:04.425Z,70.33
2022-11-27T12:03:38.098Z,70.86
2022-11-27T12:06:19.946Z,70.39
2022-11-27T12:08:49.266Z,69.52
2022-11-27T12:11:19.477Z,69.94
2022-11-27T12:14:07.121Z,70.32
2022-11-27T12:17:02.777Z,69.59
2022-11-27T12:19:35.414Z,69.66
2022-11-27T12:22:23.421Z,69.05
2022-11-27T12:25:04.512Z,68.85
2022-11-27T12:27:49.831Z,69.10
2022-11-27T12:30:26.623Z,68.23
2022-11-27T12:33:21.157Z,67.66
2022-11-27T12:36:04.462Z,67.54
2022-11-27T12:38:42.877Z,66.86
2022-11-27T12:41:35.555Z,67.13
2022-11-27T12:44:02.606Z,67.45
2022-11-27T12:46:59.682Z,67.18
2022-11-27T12:49:32.676Z,67.04
2022-11-27T12:52:11.691Z,66.38
2022-11-27T12:54:58.290Z,66.79
2022-11-27T12:57:53.920Z,66.69
2022-11-27T13:00:23.595Z,66.78
2022-11-27T13:02:56.345Z,66.74
2022-11-27T13:05:28.415Z,66.91
2022-11-27T13:08:10.152Z,66.61
2022-11-27T13:10:43.613Z,66.60
2022-11-27T13:13:31.825Z,66.81
2022-11-27T13:16:07.616Z,65.93
2022-11-27T13:18:38.382Z,66.01
2022-11-27T13:21:12.038Z,65.34
2022-11-27T13:23:39.021Z,65.41
2022-11-27T13:26:11.487Z,65.75
2022-11-27T13:28:48.591Z,65.71
2022-11-27T13:31:21.904Z,65.61
2022-11-27T13:33:49.753Z,65.69
2022-11-27T13:36:26.648Z,65.81
2022-11-27T13:38:57.797Z,65.58
2022-11-27T13:41:32.957Z,65.98
2022-11-27T13:43:59.617Z,65.77
2022-11-27T13:46:32.458Z,65.58
2022-11-27T13:49:05.310Z,65.47
2022-11-27T13:51:34.878Z,65.94
2022-11-27T13:54:12.090Z,66.23
2022-11-27T13:56:39.591Z,66.83
2022-11-27T13:59:24.523Z,66.64
2022-11-27T14:02:01.826Z,67.28
2022-11-27T14:04:31.183Z,67.10
2022-11-27T14:07:03.297Z,67.37
2022-11-27T14:09:35.085Z,67.62
2022-11-27T14:12:01.799Z,68.03
2022-11-27T14:14:28.933Z,68.33
2022-11-27T14:17:07.823Z,68.69
2022-11-27T14:19:41.322Z,68.94
2022-11-27T14:22:31.473Z,69.25
2022-11-27T14:24:57.991Z,69.32
2022-11-27T14:27:28.473Z,68.77
2022-11-27T14:29:54.954Z,68.95
2022-11-27T14:32:21.560Z,69.57
2022-11-27T14:34:48.847Z,69.76
2022-11-27T14:37:22.294Z,70.06
2022-11-27T14:39:48.763Z,70.17
2022-11-27T14:42:29.591Z,70.26
2022-11-27T14:45:05.244Z,70.57
2022-11-27T14:47:35.051Z,70.44
2022-11-27T14:50:03.551Z,70.97
2022-11-27T14:52:30.819Z,71.90
2022-11-27T14:54:57.681Z,71.93
2022-11-27T14:57:26.874Z,71.63
2022-11-27T15:00:21.325Z,71.42
2022-11-27T15:02:49.998Z,71.63
2022-11-27T15:05:25.987Z,70.97
2022-11-27T15:08:00.855Z,70.97
2022-11-27T15:10:30.053Z,70.53
2022-11-27T15:12:57.052Z,70.71
2022-11-27T15:15:27.470Z,70.84
2022-11-27T15:18:00.997Z,70.41
2022-11-27T15:20:35.786Z,70.90
2022-11-27T15:23:02.830Z,70.58
2022-11-27T15:25:41.039Z,70.45
2022-11-27T15:28:36.469Z,70.13
2022-11-27T15:31:24.980Z,70.37
2022-11-27T15:34:04.702Z,69.67
2022-11-27T15:36:38.744Z,69.81
2022-11-27T15:39:17.284Z,69.18
2022-11-27T15:41:55.711Z,69.58
2022-11-27T15:44:23.677Z,69.34
2022-11-27T15:46:50.893Z,69.25
2022-11-27T15:49:17.435Z,69.09
2022-11-27T15:51:43.909Z,68.85
2022-11-27T15:54:10.334Z,68.77
2022-11-27T15:56:36.827Z,69.14
2022-11-27T15:59:03.735Z,69.01
2022-11-27T16:01:30.329Z,68.56
2022-11-27T16:03:57.622Z,68.67
2022-11-27T16:06:24.822Z,68.72
2022-11-27T16:08:59.416Z,68.82
2022-11-27T16:11:28.082Z,68.88
2022-11-27T16:13:54.740Z,69.35
2022-11-27T16:16:21.494Z,69.94
2022-11-27T16:18:48.155Z,69.89
2022-11-27T16:21:16.102Z,70.00
2022-11-27T16:23:42.778Z,70.11
2022-11-27T16:26:14.191Z,69.81
2022-11-27T16:28:40.993Z,69.67
2022-11-27T16:31:11.633Z,69.39
2022-11-27T16:33:38.232Z,69.88
2022-11-27T16:36:12.708Z,70.54
2022-11-27T16:38:41.479Z,70.31
2022-11-27T16:41:11.136Z,70.43
2022-11-27T16:43:40.281Z,70.48
2022-11-27T16:46:09.711Z,71.02
2022-11-27T16:48:37.854Z,70.60
2022-11-27T16:51:11.338Z,70.76
2022-11-27T16:53:40.095Z,70.97
2022-11-27T16:56:08.111Z,71.06
2022-11-27T16:58:36.092Z,70.33
2022-11-27T17:01:11.194Z,70.47
2022-11-27T17:03:38.372Z,70.63
2022-11-27T17:06:13.066Z,70.89
2022-11-27T17:08:40.072Z,70.84
2022-11-27T17:11:11.122Z,70.54
2022-11-27T17:13:37.960Z,70.45
2022-11-27T17:16:06.756Z,70.53
2022-11-27T17:18:33.289Z,70.64
2022-11-27T17:21:02.476Z,70.51
2022-11-27T17:23:29.149Z,70.41
2022-11-27T17:25:55.847Z,70.94
2022-11-27T17:28:22.281Z,70.77
2022-11-27T17:30:48.769Z,71.07
2022-11-27T17:33:15.475Z,71.25
2022-11-27T17:35:42.519Z,71.80
2022-11-27T17:38:08.986Z,72.11
2022-11-27T17:40:35.510Z,72.37
2022-11-27T17:43:01.976Z,72.11
2022-11-27T17:45:28.447Z,72.06
2022-11-27T17:47:54.917Z,71.52
2022-11-27T17:50:21.398Z,71.10
2022-11-27T17:52:47.866Z,71.00
2022-11-27T17:55:14.445Z,71.00
2022-11-27T17:57:40.907Z,70.72
2022-11-27T18:00:08.138Z,70.89
2022-11-27T18:02:34.713Z,70.22
2022-11-27T18:05:01.442Z,69.89
2022-11-27T18:07:28.866Z,70.03
2022-11-27T18:09:57.146Z,69.65
2022-11-27T18:12:23.633Z,69.96
2022-11-27T18:14:55.330Z,70.32
2022-11-27T18:17:24.433Z,70.20
2022-11-27T18:19:51.249Z,70.26
2022-11-27T18:22:19.568Z,70.46
2022-11-27T18:24:46.088Z,70.33
2022-11-27T18:27:15.204Z,70.57
2022-11-27T18:29:44.659Z,70.72
2022-11-27T18:32:13.015Z,70.48
2022-11-27T18:34:40.597Z,70.55
2022-11-27T18:37:07.598Z,70.32
2022-11-27T18:39:35.427Z,70.20
2022-11-27T18:42:03.371Z,70.42
2022-11-27T18:44:29.818Z,69.99
2022-11-27T18:46:56.473Z,70.41
2022-11-27T18:49:23.369Z,70.54
2022-11-27T18:51:54.182Z,70.37
2022-11-27T18:54:21.307Z,69.86
2022-11-27T18:56:47.775Z,69.65
2022-11-27T18:59:14.230Z,70.24
2022-11-27T19:01:42.722Z,70.43
2022-11-27T19:04:11.229Z,70.69
2022-11-27T19:06:38.758Z,70.91
2022-11-27T19:09:06.104Z,70.55
2022-11-27T19:11:33.994Z,70.23
2022-11-27T19:14:01.016Z,70.44
2022-11-27T19:16:31.240Z,70.47
2022-11-27T19:18:59.552Z,70.54
2022-11-27T19:21:28.825Z,71.19
2022-11-27T19:23:57.884Z,71.62
2022-11-27T19:26:27.141Z,71.81
2022-11-27T19:28:56.199Z,71.52
2022-11-27T19:31:24.512Z,71.83
2022-11-27T19:33:55.687Z,71.41
2022-11-27T19:36:23.361Z,71.57
2022-11-27T19:38:55.245Z,72.02
2022-11-27T19:41:21.831Z,71.08
2022-11-27T19:43:48.395Z,71.66
2022-11-27T19:46:18.972Z,71.61
2022-11-27T19:48:46.961Z,71.12
2022-11-27T19:51:14.047Z,70.95
2022-11-27T19:53:41.484Z,71.21
2022-11-27T19:56:10.035Z,71.08
2022-11-27T19:58:37.146Z,71.09
2022-11-27T20:01:11.418Z,70.66
2022-11-27T20:03:38.751Z,70.75
2022-11-27T20:06:16.881Z,70.35
2022-11-27T20:08:44.984Z,70.13
2022-11-27T20:11:15.288Z,69.64
2022-11-27T20:13:42.018Z,69.58
2022-11-27T20:16:10.812Z,69.69
2022-11-27T20:18:38.142Z,69.88
2022-11-27T20:21:14.839Z,70.28
2022-11-27T20:23:42.118Z,70.12
2022-11-27T20:26:13.779Z,69.71
2022-11-27T20:28:41.420Z,69.78
2022-11-27T20:31:25.608Z,70.06
2022-11-27T20:33:54.354Z,69.66
2022-11-27T20:36:25.295Z,69.98
2022-11-27T20:38:52.491Z,69.59
2022-11-27T20:41:20.728Z,69.69
2022-11-27T20:43:47.989Z,69.60
2022-11-27T20:46:16.461Z,69.29
2022-11-27T20:48:46.167Z,69.53
2022-11-27T20:51:15.213Z,69.64
2022-11-27T20:53:43.623Z,69.46
2022-11-27T20:56:11.841Z,69.71
2022-11-27T20:58:40.196Z,69.60
2022-11-27T21:01:26.275Z,69.43
2022-11-27T21:03:54.169Z,69.73
2022-11-27T21:06:24.497Z,69.62
2022-11-27T21:08:51.211Z,69.69
2022-11-27T21:11:25.196Z,69.48
2022-11-27T21:13:55.936Z,69.14
2022-11-27T21:16:24.589Z,69.72
2022-11-27T21:18:54.998Z,69.64
2022-11-27T21:21:21.641Z,69.48
2022-11-27T21:23:48.239Z,69.94
2022-11-27T21:26:18.528Z,69.89
2022-11-27T21:28:45.466Z,70.30
2022-11-27T21:31:18.148Z,70.33
2022-11-27T21:33:51.646Z,70.77
2022-11-27T21:36:19.347Z,70.65
2022-11-27T21:38:45.794Z,70.92
2022-11-27T21:41:14.102Z,72.29
2022-11-27T21:43:41.276Z,73.58
2022-11-27T21:46:10.167Z,73.95
2022-11-27T21:48:36.852Z,74.30
2022-11-27T21:51:04.725Z,74.39
2022-11-27T21:53:32.275Z,75.05
2022-11-27T21:56:02.867Z,75.38
2022-11-27T21:58:34.099Z,75.81
2022-11-27T22:01:01.896Z,76.41
2022-11-27T22:03:28.591Z,76.44
2022-11-27T22:06:01.606Z,76.48
2022-11-27T22:08:36.230Z,76.65
2022-11-27T22:11:07.743Z,76.64
2022-11-27T22:13:34.811Z,77.10
2022-11-27T22:16:01.336Z,77.57
2022-11-27T22:18:28.127Z,78.69
2022-11-27T22:20:54.638Z,79.10
2022-11-27T22:23:21.070Z,80.01
2022-11-27T22:25:47.536Z,80.22
2022-11-27T22:28:14.016Z,80.22
2022-11-27T22:30:40.510Z,80.51
2022-11-27T22:33:07.035Z,80.68
2022-11-27T22:35:33.579Z,80.58
2022-11-27T22:38:00.009Z,80.21
2022-11-27T22:40:26.485Z,80.04
2022-11-27T22:42:53.153Z,80.25
2022-11-27T22:45:19.625Z,80.57
2022-11-27T22:47:46.142Z,80.24
2022-11-27T22:50:12.606Z,81.11
2022-11-27T22:52:39.080Z,81.04
2022-11-27T22:55:06.057Z,81.78
2022-11-27T22:57:34.055Z,81.75
2022-11-27T23:00:00.690Z,82.33
2022-11-27T23:02:27.573Z,82.42
2022-11-27T23:04:54.157Z,82.56
2022-11-27T23:07:24.962Z,82.59
2022-11-27T23:09:51.988Z,82.68
2022-11-27T23:12:18.743Z,83.16
2022-11-27T23:14:45.205Z,83.46
2022-11-27T23:17:12.027Z,83.73
2022-11-27T23:19:38.490Z,83.95
2022-11-27T23:22:04.946Z,84.18
2022-11-27T23:24:31.783Z,84.67
2022-11-27T23:26:58.284Z,84.59
2022-11-27T23:29:25.198Z,84.64
2022-11-27T23:31:51.840Z,85.07
2022-11-27T23:34:18.315Z,85.19
2022-11-27T23:36:44.871Z,85.52
2022-11-27T23:39:13.846Z,85.70
2022-11-27T23:41:40.921Z,85.49
2022-11-27T23:44:07.965Z,86.21
2022-11-27T23:46:34.667Z,86.15
2022-11-27T23:49:01.180Z,86.13
2022-11-27T23:51:30.857Z,85.71
2022-11-27T23:53:58.599Z,85.89
2022-11-27T23:56:28.117Z,85.98
2022-11-27T23:58:55.946Z,86.19
